Time;durP1;ratioP1;P1;durP2;ratioP2;P2;SDS_P1;SDS_P2;PMS_P1;PMS_P2;Temp;Humidity;BMP_temperature;BMP_pressure;BME280_temperature;BME280_humidity;BME280_pressure;Samples;Min_cycle;Max_cycle;Signal;HPM_P1;HPM_P2
2021/04/21 00:00:56;;;;;;;25.15;16.50;;;12.00;67.00;;;;;;5095839;28;20048;-37
2021/04/21 00:03:22;;;;;;;26.20;16.33;;;11.90;66.80;;;;;;5095678;28;20024;-36
2021/04/21 00:05:50;;;;;;;24.50;16.88;;;11.80;66.70;;;;;;5095498;28;20050;-36
2021/04/21 00:08:16;;;;;;;24.98;17.17;;;11.80;66.10;;;;;;5096114;28;20026;-37
2021/04/21 00:10:43;;;;;;;24.95;17.48;;;11.70;66.30;;;;;;5095590;28;20032;-36
2021/04/21 00:13:10;;;;;;;23.02;15.73;;;11.60;66.00;;;;;;5095693;28;20027;-37
2021/04/21 00:15:36;;;;;;;22.88;16.38;;;11.60;66.10;;;;;;5095603;28;20028;-38
2021/04/21 00:18:05;;;;;;;24.55;16.73;;;11.60;65.90;;;;;;5095569;28;20081;-36
2021/04/21 00:20:32;;;;;;;24.15;15.40;;;11.50;66.20;;;;;;5095306;28;20107;-36
2021/04/21 00:23:01;;;;;;;24.48;16.30;;;11.40;66.20;;;;;;5095521;28;20112;-36
2021/04/21 00:25:30;;;;;;;21.50;15.52;;;11.50;65.90;;;;;;5095500;28;20061;-37
2021/04/21 00:27:56;;;;;;;23.38;16.75;;;11.60;65.40;;;;;;5095296;28;20020;-37
2021/04/21 00:30:25;;;;;;;23.08;15.93;;;11.50;65.50;;;;;;5095684;28;20070;-37
2021/04/21 00:32:53;;;;;;;22.15;15.43;;;11.40;65.90;;;;;;5095389;28;20121;-36
2021/04/21 00:35:25;;;;;;;24.67;15.48;;;11.30;66.20;;;;;;5095227;28;20085;-36
2021/04/21 00:37:58;;;;;;;21.77;14.95;;;11.30;66.10;;;;;;5093942;28;20023;-37
2021/04/21 00:41:10;;;;;;;23.58;14.00;;;11.30;65.70;;;;;;5093729;28;20016;-37
2021/04/21 00:43:53;;;;;;;20.50;13.85;;;11.40;65.10;;;;;;5067207;28;20099;-36
2021/04/21 00:46:31;;;;;;;23.25;15.57;;;11.50;64.50;;;;;;5096478;28;20027;-37
2021/04/21 00:49:22;;;;;;;19.27;13.95;;;11.60;64.00;;;;;;5094771;28;20094;-36
2021/04/21 00:51:59;;;;;;;22.40;12.52;;;11.70;62.90;;;;;;5093972;28;20102;-36
2021/04/21 00:54:32;;;;;;;22.50;13.52;;;11.60;62.90;;;;;;5094059;28;20075;-36
2021/04/21 00:57:06;;;;;;;21.02;13.73;;;11.50;62.80;;;;;;5095155;28;20028;-36
2021/04/21 00:59:42;;;;;;;19.58;12.82;;;11.60;61.90;;;;;;5095211;28;20020;-36
2021/04/21 01:02:10;;;;;;;17.17;13.45;;;11.50;61.60;;;;;;5095545;28;20023;-37
2021/04/21 01:04:39;;;;;;;21.50;12.63;;;11.40;61.90;;;;;;5094772;28;20042;-36
2021/04/21 01:07:06;;;;;;;20.33;12.68;;;11.30;61.70;;;;;;5094662;28;20028;-36
2021/04/21 01:09:33;;;;;;;18.92;11.70;;;11.30;61.70;;;;;;5094466;28;20031;-36
2021/04/21 01:12:05;;;;;;;20.98;12.55;;;11.20;61.10;;;;;;5094440;28;20489;-40
2021/04/21 01:14:36;;;;;;;21.42;12.43;;;11.30;60.50;;;;;;5095111;28;20035;-37
2021/04/21 01:17:05;;;;;;;18.23;11.52;;;11.30;60.40;;;;;;5094309;28;20031;-36
2021/04/21 01:19:39;;;;;;;21.88;11.85;;;11.50;59.30;;;;;;5094359;28;20023;-36
2021/04/21 01:22:43;;;;;;;20.92;12.80;;;11.30;59.80;;;;;;5094164;28;20050;-36
2021/04/21 01:25:20;;;;;;;21.77;11.10;;;11.40;59.50;;;;;;5093572;28;20036;-37
2021/04/21 01:27:45;;;;;;;15.70;12.13;;;11.40;59.40;;;;;;5093959;28;20035;-36
2021/04/21 01:30:17;;;;;;;21.30;11.48;;;11.30;59.50;;;;;;5094046;28;20020;-37
2021/04/21 01:32:46;;;;;;;18.35;12.82;;;11.30;59.90;;;;;;5094029;28;20024;-37
2021/04/21 01:35:14;;;;;;;25.60;12.10;;;11.30;59.90;;;;;;5093859;28;20035;-36
2021/04/21 01:37:40;;;;;;;19.15;12.10;;;11.10;60.50;;;;;;5094047;28;20105;-37
2021/04/21 01:40:25;;;;;;;18.25;11.65;;;11.10;60.20;;;;;;5094029;28;20024;-37
2021/04/21 01:42:59;;;;;;;19.67;12.32;;;11.00;60.20;;;;;;5094124;28;20035;-37
2021/04/21 01:45:28;;;;;;;17.95;11.15;;;10.90;61.00;;;;;;5094021;28;20031;-37
2021/04/21 01:47:59;;;;;;;16.55;11.73;;;10.80;61.40;;;;;;5093514;28;20073;-37
2021/04/21 01:50:25;;;;;;;18.90;12.00;;;10.70;61.80;;;;;;5094161;28;20020;-37
2021/04/21 01:52:54;;;;;;;18.20;11.23;;;10.50;62.70;;;;;;5092086;28;20024;-37
2021/04/21 01:55:20;;;;;;;22.45;13.68;;;10.30;63.10;;;;;;5094178;28;20081;-37
2021/04/21 01:58:19;;;;;;;17.95;11.88;;;10.30;64.40;;;;;;5093820;28;20020;-37
2021/04/21 02:00:57;;;;;;;20.23;13.77;;;10.00;68.00;;;;;;5092640;28;20043;-36
2021/04/21 02:03:29;;;;;;;19.48;14.55;;;9.60;69.90;;;;;;5093470;28;20383;-36
2021/04/21 02:06:07;;;;;;;21.90;13.52;;;9.40;71.10;;;;;;5093750;28;20024;-37
2021/04/21 02:09:10;;;;;;;29.88;16.40;;;9.30;72.60;;;;;;5093689;28;20020;-36
2021/04/21 02:11:47;;;;;;;25.13;17.95;;;9.10;74.90;;;;;;5093590;28;20444;-36
2021/04/21 02:14:32;;;;;;;26.33;18.15;;;9.00;75.80;;;;;;5093218;28;20056;-38
2021/04/21 02:17:36;;;;;;;28.08;19.27;;;9.00;76.40;;;;;;5093386;28;20020;-37
2021/04/21 02:20:39;;;;;;;30.77;19.35;;;8.90;76.40;;;;;;5092873;28;20063;-37
2021/04/21 02:23:11;;;;;;;35.15;18.83;;;8.90;76.90;;;;;;5091966;28;20020;-36
2021/04/21 02:25:49;;;;;;;30.20;21.75;;;9.00;76.50;;;;;;5091802;28;20114;-36
2021/04/21 02:28:43;;;;;;;29.05;19.58;;;9.00;76.80;;;;;;5093195;28;20464;-37
2021/04/21 02:31:33;;;;;;;26.75;18.63;;;9.00;76.80;;;;;;5092963;28;20020;-37
2021/04/21 02:34:23;;;;;;;27.42;18.30;;;9.10;75.90;;;;;;5093427;28;20028;-37
2021/04/21 02:36:52;;;;;;;29.83;19.77;;;9.00;76.40;;;;;;5091769;28;20074;-37
2021/04/21 02:39:23;;;;;;;32.47;19.95;;;9.10;76.80;;;;;;5092904;28;20047;-37
2021/04/21 02:41:58;;;;;;;29.08;18.65;;;9.10;76.70;;;;;;5092981;28;20080;-37
2021/04/21 02:44:32;;;;;;;33.35;19.67;;;8.90;77.00;;;;;;5092445;28;20107;-37
2021/04/21 02:47:03;;;;;;;29.73;19.13;;;8.90;77.10;;;;;;5092899;28;20024;-37
2021/04/21 02:49:40;;;;;;;28.83;16.98;;;8.90;77.30;;;;;;5092847;28;20047;-37
2021/04/21 02:52:25;;;;;;;27.02;19.02;;;8.90;76.80;;;;;;5093469;28;20051;-37
2021/04/21 02:55:22;;;;;;;32.97;19.88;;;8.90;76.80;;;;;;5093149;28;20051;-37
2021/04/21 02:58:17;;;;;;;25.92;18.40;;;8.90;76.70;;;;;;5092893;28;20020;-37
2021/04/21 03:00:53;;;;;;;27.98;18.25;;;8.90;76.20;;;;;;5093579;28;20098;-37
2021/04/21 03:03:54;;;;;;;23.17;16.65;;;8.80;76.10;;;;;;5092843;28;20138;-37
2021/04/21 03:06:24;;;;;;;27.90;16.48;;;8.90;76.00;;;;;;5092851;28;20035;-37
2021/04/21 03:09:05;;;;;;;25.05;15.23;;;9.00;74.90;;;;;;5093152;28;20040;-37
2021/04/21 03:11:31;;;;;;;23.35;13.75;;;9.00;74.30;;;;;;5095325;28;20048;-37
2021/04/21 03:14:08;;;;;;;22.77;14.32;;;8.90;74.20;;;;;;5096768;28;20034;-37
2021/04/21 03:16:41;;;;;;;20.92;13.77;;;8.90;74.10;;;;;;5096876;28;20031;-37
2021/04/21 03:19:08;;;;;;;24.92;15.32;;;8.80;74.90;;;;;;5096702;28;20539;-37
2021/04/21 03:21:39;;;;;;;25.45;17.45;;;8.80;75.10;;;;;;5096633;28;20028;-37
2021/04/21 03:24:05;;;;;;;;;;;8.70;76.90;;;;;;5097094;28;20020;-37
2021/04/21 03:26:31;;;;;;;19.92;13.13;;;8.60;76.00;;;;;;5097075;28;19904;-37
2021/04/21 03:29:02;;;;;;;28.10;14.18;;;8.60;75.80;;;;;;5096171;28;20024;-37
2021/04/21 03:31:33;;;;;;;19.17;13.52;;;8.60;75.00;;;;;;5096443;28;20032;-37
2021/04/21 03:34:05;;;;;;;23.70;14.25;;;8.60;74.40;;;;;;5096392;28;20028;-37
2021/04/21 03:36:32;;;;;;;25.08;14.82;;;8.60;74.30;;;;;;5096366;28;20020;-36
2021/04/21 03:38:59;;;;;;;20.08;14.20;;;8.60;74.00;;;;;;5096281;28;20531;-36
2021/04/21 03:41:25;;;;;;;17.38;13.35;;;8.60;73.30;;;;;;5095926;28;20491;-35
2021/04/21 03:43:51;;;;;;;19.88;13.65;;;8.60;73.50;;;;;;5095915;28;20017;-37
2021/04/21 03:46:17;;;;;;;21.20;14.10;;;8.60;73.50;;;;;;5095859;28;20115;-36
2021/04/21 03:48:45;;;;;;;24.42;14.95;;;8.70;73.00;;;;;;5096011;28;20090;-36
2021/04/21 03:51:13;;;;;;;24.00;14.80;;;8.70;73.60;;;;;;5096089;28;20024;-38
2021/04/21 03:53:40;;;;;;;27.77;16.35;;;8.70;75.10;;;;;;5094428;28;20111;-35
2021/04/21 03:56:14;;;;;;;29.00;15.63;;;8.50;75.60;;;;;;5095624;28;20050;-36
2021/04/21 03:58:41;;;;;;;24.13;16.38;;;8.50;76.40;;;;;;5094475;28;20086;-36
2021/04/21 04:01:13;;;;;;;29.73;18.10;;;8.50;77.20;;;;;;5095516;28;20542;-36
2021/04/21 04:03:41;;;;;;;28.52;16.88;;;8.50;77.50;;;;;;5094265;28;20020;-36
2021/04/21 04:06:14;;;;;;;26.65;17.38;;;8.60;77.00;;;;;;5095737;28;20507;-35
2021/04/21 04:08:49;;;;;;;27.88;17.20;;;8.60;76.70;;;;;;5094112;28;20044;-35
2021/04/21 04:11:17;;;;;;;27.48;17.52;;;8.50;75.90;;;;;;5095704;28;20050;-36
2021/04/21 04:13:47;;;;;;;25.52;15.25;;;8.40;76.00;;;;;;5095441;28;20028;-35
2021/04/21 04:16:13;;;;;;;23.42;15.98;;;8.30;76.40;;;;;;5095378;28;20031;-35
2021/04/21 04:18:43;;;;;;;31.52;16.60;;;8.30;76.40;;;;;;5096403;28;20483;-35
2021/04/21 04:21:12;;;;;;;23.55;15.82;;;8.40;76.20;;;;;;5095273;28;20031;-35
2021/04/21 04:23:40;;;;;;;28.77;18.08;;;8.40;76.60;;;;;;5094273;28;20034;-35
2021/04/21 04:26:07;;;;;;;24.00;15.73;;;8.50;76.50;;;;;;5093761;28;20034;-36
2021/04/21 04:28:34;;;;;;;26.40;16.70;;;8.50;76.50;;;;;;5095040;28;20130;-36
2021/04/21 04:31:02;;;;;;;24.80;15.82;;;8.50;76.40;;;;;;5095209;28;20031;-36
2021/04/21 04:33:29;;;;;;;24.83;16.38;;;8.60;75.90;;;;;;5095120;28;20027;-37
2021/04/21 04:35:55;;;;;;;23.85;15.40;;;8.60;75.40;;;;;;5094762;28;20380;-36
2021/04/21 04:38:21;;;;;;;33.88;16.20;;;8.70;75.20;;;;;;5094741;28;20031;-36
2021/04/21 04:40:50;;;;;;;26.70;15.93;;;8.80;75.10;;;;;;5094925;28;20028;-36
2021/04/21 04:43:17;;;;;;;22.65;15.20;;;8.90;74.70;;;;;;5094935;28;20020;-37
2021/04/21 04:45:46;;;;;;;25.95;14.40;;;8.90;75.00;;;;;;5095031;28;20028;-38
2021/04/21 04:48:21;;;;;;;24.15;16.23;;;8.90;75.10;;;;;;5094469;28;20047;-37
2021/04/21 04:50:48;;;;;;;26.05;17.48;;;8.90;75.60;;;;;;5094617;28;20115;-37
2021/04/21 04:53:16;;;;;;;29.40;19.08;;;8.90;75.90;;;;;;5094432;28;20036;-37
2021/04/21 04:55:42;;;;;;;27.33;18.02;;;8.80;76.20;;;;;;5093040;28;20400;-37
2021/04/21 04:58:11;;;;;;;25.00;17.38;;;8.90;76.30;;;;;;5094571;28;20495;-38
2021/04/21 05:00:38;;;;;;;28.10;17.92;;;8.90;76.80;;;;;;5094425;28;20028;-36
2021/04/21 05:03:23;;;;;;;34.83;18.52;;;9.00;76.70;;;;;;5094298;28;20039;-36
2021/04/21 05:05:54;;;;;;;34.47;18.35;;;9.00;76.30;;;;;;5094320;28;20036;-36
2021/04/21 05:08:25;;;;;;;27.13;18.10;;;8.90;76.70;;;;;;5094468;28;20031;-36
2021/04/21 05:11:02;;;;;;;28.42;17.95;;;8.90;77.20;;;;;;5094072;28;20055;-38
2021/04/21 05:13:33;;;;;;;31.23;17.65;;;8.90;77.20;;;;;;5094519;28;20036;-36
2021/04/21 05:16:11;;;;;;;28.55;19.15;;;8.80;77.40;;;;;;5094059;28;20048;-36
2021/04/21 05:19:09;;;;;;;31.95;17.98;;;8.60;77.60;;;;;;5094058;28;20402;-36
2021/04/21 05:22:05;;;;;;;27.52;18.27;;;8.30;78.60;;;;;;5094301;28;20073;-37
2021/04/21 05:24:49;;;;;;;26.52;16.02;;;8.30;78.40;;;;;;5094220;28;20157;-36
2021/04/21 05:27:31;;;;;;;24.48;15.85;;;8.40;78.60;;;;;;5093906;28;20031;-37
2021/04/21 05:30:12;;;;;;;32.42;18.52;;;8.40;78.00;;;;;;5094387;28;20016;-36
2021/04/21 05:32:59;;;;;;;27.98;18.52;;;8.30;77.10;;;;;;5094825;28;20028;-36
2021/04/21 05:36:01;;;;;;;32.45;18.27;;;8.30;76.90;;;;;;5093857;28;20020;-36
2021/04/21 05:39:03;;;;;;;30.75;17.95;;;8.30;77.50;;;;;;5094466;28;20364;-36
2021/04/21 05:41:47;;;;;;;32.78;18.42;;;8.30;77.70;;;;;;5093629;28;20528;-36
2021/04/21 05:44:55;;;;;;;22.92;16.17;;;8.70;76.10;;;;;;5092377;28;20028;-36
2021/04/21 05:47:39;;;;;;;29.77;17.83;;;8.80;75.70;;;;;;5093403;28;20027;-36
2021/04/21 05:50:25;;;;;;;32.60;17.13;;;9.10;75.00;;;;;;5094360;28;20069;-36
2021/04/21 05:53:41;;;;;;;23.90;16.65;;;9.20;73.80;;;;;;5093659;28;20020;-36
2021/04/21 05:56:10;;;;;;;23.33;16.08;;;9.30;73.50;;;;;;5092532;28;20040;-37
2021/04/21 05:59:04;;;;;;;25.52;16.08;;;9.80;71.10;;;;;;5093399;28;20024;-36
2021/04/21 06:01:35;;;;;;;24.98;15.38;;;9.90;70.60;;;;;;5093304;28;20028;-38
2021/04/21 06:04:01;;;;;;;19.90;13.93;;;10.30;68.70;;;;;;5093058;28;20057;-37
2021/04/21 06:06:27;;;;;;;24.60;15.65;;;10.40;68.10;;;;;;5092141;28;20032;-37
2021/04/21 06:08:54;;;;;;;20.50;14.90;;;10.20;68.40;;;;;;5091964;28;20511;-37
2021/04/21 06:11:24;;;;;;;23.73;14.80;;;10.40;66.90;;;;;;5092891;28;20069;-37
2021/04/21 06:13:58;;;;;;;30.90;14.40;;;10.60;65.90;;;;;;5091646;28;20024;-36
2021/04/21 06:16:26;;;;;;;27.73;14.07;;;10.60;65.90;;;;;;5093343;28;20027;-36
2021/04/21 06:18:57;;;;;;;22.38;15.13;;;10.80;64.60;;;;;;5091761;28;20024;-36
2021/04/21 06:21:25;;;;;;;22.35;14.23;;;10.60;64.60;;;;;;5093026;28;20023;-36
2021/04/21 06:23:55;;;;;;;21.17;15.25;;;10.60;64.80;;;;;;5093429;28;20016;-37
2021/04/21 06:26:23;;;;;;;19.80;13.80;;;10.80;65.30;;;;;;5093242;28;20144;-36
2021/04/21 06:29:03;;;;;;;23.63;14.35;;;10.70;66.20;;;;;;5093296;28;20085;-36
2021/04/21 06:31:51;;;;;;;22.30;15.02;;;10.70;66.50;;;;;;5092907;28;20028;-39
2021/04/21 06:34:17;;;;;;;29.83;15.57;;;10.60;66.40;;;;;;5091360;28;20056;-37
2021/04/21 06:36:49;;;;;;;71.10;19.02;;;10.70;66.00;;;;;;5092678;28;20511;-37
2021/04/21 06:39:18;;;;;;;26.90;16.38;;;10.60;67.60;;;;;;5091717;28;20031;-37
2021/04/21 06:41:44;;;;;;;28.95;16.10;;;10.50;68.50;;;;;;5092750;28;20024;-37
2021/04/21 06:44:13;;;;;;;26.48;14.88;;;10.40;68.70;;;;;;5093032;28;20031;-37
2021/04/21 06:46:39;;;;;;;24.95;16.50;;;10.50;68.30;;;;;;5095219;28;20027;-38
2021/04/21 06:49:04;;;;;;;25.45;17.90;;;10.50;69.10;;;;;;5096660;28;20052;-36
2021/04/21 06:51:32;;;;;;;26.52;15.82;;;10.30;69.60;;;;;;5096878;28;20120;-38
2021/04/21 06:54:05;;;;;;;23.05;16.15;;;10.20;69.40;;;;;;5096735;28;20024;-37
2021/04/21 06:56:33;;;;;;;21.23;15.43;;;10.30;69.40;;;;;;5096711;28;20388;-37
2021/04/21 06:59:00;;;;;;;23.27;15.02;;;10.50;68.60;;;;;;5096276;28;20020;-38
2021/04/21 07:01:28;;;;;;;19.88;14.77;;;10.60;67.90;;;;;;5096237;28;20127;-37
2021/04/21 07:04:15;;;;;;;20.77;14.05;;;10.80;66.30;;;;;;5096433;28;20028;-37
2021/04/21 07:06:43;;;;;;;20.83;15.32;;;11.00;65.30;;;;;;5096478;28;20107;-37
2021/04/21 07:09:15;;;;;;;23.42;14.90;;;11.10;65.40;;;;;;5096444;28;20024;-37
2021/04/21 07:11:42;;;;;;;24.55;15.55;;;11.50;64.10;;;;;;5096151;28;20022;-37
2021/04/21 07:14:10;;;;;;;25.38;16.27;;;11.80;63.00;;;;;;5096599;28;20016;-37
2021/04/21 07:16:39;;;;;;;26.45;16.67;;;11.80;61.30;;;;;;5096196;28;20115;-38
2021/04/21 07:19:09;;;;;;;26.63;16.40;;;12.00;61.30;;;;;;5096288;28;20024;-38
2021/04/21 07:21:37;;;;;;;25.77;15.43;;;12.10;60.40;;;;;;5096175;28;20027;-38
2021/04/21 07:24:04;;;;;;;23.00;14.82;;;12.40;59.40;;;;;;5096309;28;20557;-38
2021/04/21 07:26:34;;;;;;;18.38;13.52;;;12.50;58.10;;;;;;5096126;28;20410;-37
2021/04/21 07:29:00;;;;;;;27.88;15.43;;;12.70;57.90;;;;;;5096341;28;20076;-36
2021/04/21 07:31:26;;;;;;;23.05;14.32;;;13.10;56.50;;;;;;5095589;28;20032;-38
2021/04/21 07:33:52;;;;;;;25.58;14.45;;;13.30;55.50;;;;;;5095324;28;20111;-37
2021/04/21 07:36:26;;;;;;;20.45;13.80;;;13.30;55.40;;;;;;5096428;28;20028;-38
2021/04/21 07:38:52;;;;;;;22.60;14.02;;;13.60;54.40;;;;;;5095050;28;20055;-41
2021/04/21 07:41:38;;;;;;;22.08;14.38;;;13.60;52.40;;;;;;5096337;28;20101;-39
2021/04/21 07:44:06;;;;;;;20.30;12.77;;;13.60;52.10;;;;;;5096128;28;20089;-37
2021/04/21 07:46:33;;;;;;;21.13;13.05;;;13.50;52.30;;;;;;5095584;28;20024;-37
2021/04/21 07:48:58;;;;;;;17.40;12.85;;;14.00;51.30;;;;;;5094781;28;20052;-38
2021/04/21 07:51:24;;;;;;;22.50;13.70;;;14.20;49.50;;;;;;5094767;28;20494;-38
2021/04/21 07:54:02;;;;;;;20.73;13.02;;;14.10;49.90;;;;;;5095592;28;20034;-38
2021/04/21 07:56:49;;;;;;;18.27;12.65;;;14.20;49.80;;;;;;5095592;28;20106;-37
2021/04/21 07:59:20;;;;;;;18.98;12.88;;;14.80;47.50;;;;;;5094750;28;20484;-38
2021/04/21 08:01:47;;;;;;;16.63;12.82;;;15.10;47.20;;;;;;5094948;28;20484;-37
2021/04/21 08:04:24;;;;;;;16.77;12.98;;;15.10;47.80;;;;;;5094860;28;20020;-38
2021/04/21 08:07:00;;;;;;;20.77;12.73;;;15.60;46.30;;;;;;5095553;28;20500;-38
2021/04/21 08:09:32;;;;;;;17.98;12.98;;;16.30;44.60;;;;;;5094405;28;20043;-38
2021/04/21 08:12:09;;;;;;;20.60;14.25;;;16.40;44.40;;;;;;5095121;28;20353;-38
2021/04/21 08:14:49;;;;;;;18.33;12.73;;;16.10;43.80;;;;;;5094946;28;20447;-38
2021/04/21 08:17:16;;;;;;;20.98;12.18;;;15.70;43.80;;;;;;5093620;28;20105;-37
2021/04/21 08:19:47;;;;;;;17.08;11.40;;;15.80;44.30;;;;;;5095137;28;20028;-38
2021/04/21 08:22:22;;;;;;;17.65;12.27;;;15.90;44.00;;;;;;5095298;28;20384;-38
2021/04/21 08:25:03;;;;;;;24.02;12.20;;;16.40;43.80;;;;;;5095206;28;20054;-37
2021/04/21 08:27:29;;;;;;;24.58;12.60;;;16.50;44.20;;;;;;5094922;28;20105;-37
2021/04/21 08:29:54;;;;;;;17.48;12.73;;;16.60;43.30;;;;;;5095432;28;20479;-38
2021/04/21 08:32:22;;;;;;;20.08;11.32;;;16.90;42.70;;;;;;5095150;28;20070;-38
2021/04/21 08:34:49;;;;;;;15.63;11.30;;;16.80;42.50;;;;;;5094500;28;20028;-38
2021/04/21 08:37:16;;;;;;;18.38;10.77;;;17.60;41.20;;;;;;5094823;28;20073;-37
2021/04/21 08:39:42;;;;;;;15.93;10.85;;;17.70;39.80;;;;;;5093462;28;20022;-37
2021/04/21 08:42:10;;;;;;;18.90;11.43;;;17.70;40.70;;;;;;5094213;28;20401;-37
2021/04/21 08:44:41;;;;;;;17.13;11.93;;;17.80;39.90;;;;;;5094268;28;20047;-38
2021/04/21 08:47:12;;;;;;;16.77;11.52;;;17.90;40.20;;;;;;5094809;28;20472;-37
2021/04/21 08:49:39;;;;;;;11.55;8.73;;;18.30;38.30;;;;;;5093975;28;20047;-37
2021/04/21 08:52:05;;;;;;;19.77;9.40;;;18.50;34.00;;;;;;5094735;28;20494;-38
2021/04/21 08:54:32;;;;;;;15.13;10.43;;;17.90;35.30;;;;;;5094134;28;20020;-36
2021/04/21 08:56:59;;;;;;;14.45;8.80;;;17.80;36.80;;;;;;5094598;28;20036;-39
2021/04/21 08:59:26;;;;;;;12.57;9.48;;;18.20;35.00;;;;;;5094416;28;20166;-37
2021/04/21 09:01:52;;;;;;;17.35;10.52;;;19.30;33.80;;;;;;5095093;28;20028;-37
2021/04/21 09:04:18;;;;;;;16.45;9.98;;;19.30;34.30;;;;;;5096217;28;20027;-38
2021/04/21 09:06:47;;;;;;;17.58;9.85;;;19.00;34.70;;;;;;5095000;28;20024;-37
2021/04/21 09:09:15;;;;;;;13.80;8.77;;;19.30;33.70;;;;;;5094758;28;20028;-40
2021/04/21 09:11:41;;;;;;;15.57;10.80;;;18.20;32.90;;;;;;5095139;28;20491;-38
2021/04/21 09:14:07;;;;;;;19.40;13.77;;;17.80;36.20;;;;;;5094058;28;20027;-37
2021/04/21 09:16:33;;;;;;;16.20;10.73;;;18.50;37.50;;;;;;5094210;28;20028;-39
2021/04/21 09:18:59;;;;;;;10.63;6.72;;;18.70;35.50;;;;;;5094296;28;20024;-38
2021/04/21 09:21:31;;;;;;;18.38;7.53;;;18.00;30.80;;;;;;5093686;28;20023;-38
2021/04/21 09:23:57;;;;;;;21.02;12.73;;;17.90;31.80;;;;;;5094066;28;20023;-38
2021/04/21 09:26:33;;;;;;;18.25;10.00;;;17.80;37.00;;;;;;5093754;28;20372;-38
2021/04/21 09:28:59;;;;;;;14.18;9.82;;;17.80;35.60;;;;;;5092747;28;20028;-40
2021/04/21 09:31:30;;;;;;;18.77;8.93;;;17.80;35.30;;;;;;5093533;28;20101;-38
2021/04/21 09:34:16;;;;;;;12.60;8.07;;;18.70;33.00;;;;;;5092242;28;20096;-38
2021/04/21 09:36:47;;;;;;;12.45;8.48;;;19.50;31.30;;;;;;5092950;28;20075;-38
2021/04/21 09:39:24;;;;;;;12.90;8.40;;;20.10;32.20;;;;;;5093810;28;20468;-38
2021/04/21 09:41:59;;;;;;;11.55;7.38;;;20.10;30.90;;;;;;5093346;28;20036;-38
2021/04/21 09:44:28;;;;;;;10.40;8.05;;;19.60;31.20;;;;;;5093256;28;20020;-38
2021/04/21 09:46:55;;;;;;;10.57;7.32;;;20.10;31.10;;;;;;5094102;28;20028;-38
2021/04/21 09:49:30;;;;;;;13.43;9.70;;;20.40;30.20;;;;;;5092968;28;20044;-39
2021/04/21 09:51:58;;;;;;;14.88;8.80;;;19.50;32.10;;;;;;5091993;28;20020;-37
2021/04/21 09:54:31;;;;;;;11.23;8.13;;;18.80;33.90;;;;;;5092903;28;20046;-37
2021/04/21 09:57:18;;;;;;;13.68;7.93;;;18.60;33.90;;;;;;5093312;28;20486;-37
2021/04/21 10:00:13;;;;;;;13.80;7.93;;;18.80;33.90;;;;;;5093183;28;20027;-38
2021/04/21 10:02:41;;;;;;;12.55;8.45;;;19.50;32.40;;;;;;5092898;28;20036;-36
2021/04/21 10:05:32;;;;;;;11.93;8.95;;;19.60;32.00;;;;;;5092839;28;20047;-36
2021/04/21 10:08:10;;;;;;;12.80;7.95;;;19.80;31.20;;;;;;5093031;28;20077;-37
2021/04/21 10:10:36;;;;;;;16.30;8.88;;;20.00;31.30;;;;;;5091378;28;20028;-36
2021/04/21 10:13:21;;;;;;;11.50;8.02;;;20.40;30.60;;;;;;5092913;28;20043;-36
2021/04/21 10:15:50;;;;;;;12.65;8.02;;;20.70;28.30;;;;;;5092672;28;20028;-36
2021/04/21 10:18:16;;;;;;;10.82;7.78;;;19.70;29.00;;;;;;5092129;28;20457;-36
2021/04/21 10:20:44;;;;;;;9.75;6.55;;;18.30;30.50;;;;;;5092228;28;20464;-37
2021/04/21 10:23:12;;;;;;;10.15;7.25;;;18.60;30.70;;;;;;5092839;28;20157;-36
2021/04/21 10:25:41;;;;;;;12.13;6.53;;;19.30;30.00;;;;;;5092890;28;20533;-37
2021/04/21 10:28:08;;;;;;;11.77;7.40;;;19.30;29.60;;;;;;5094713;28;20112;-38
2021/04/21 10:30:37;;;;;;;12.50;7.03;;;19.30;28.90;;;;;;5092905;28;20056;-37
2021/04/21 10:33:03;;;;;;;10.43;6.55;;;19.00;29.90;;;;;;5092579;28;20020;-37
2021/04/21 10:35:29;;;;;;;12.48;6.63;;;18.90;29.20;;;;;;5092256;28;20028;-37
2021/04/21 10:37:56;;;;;;;12.10;7.25;;;19.80;28.50;;;;;;5092518;28;20444;-37
2021/04/21 10:40:25;;;;;;;8.73;6.72;;;20.30;27.70;;;;;;5092741;28;20029;-37
2021/04/21 10:42:53;;;;;;;11.60;7.57;;;20.80;26.60;;;;;;5092269;28;20078;-37
2021/04/21 10:45:24;;;;;;;10.43;6.72;;;20.40;26.80;;;;;;5091143;28;20020;-37
2021/04/21 10:47:52;;;;;;;12.20;7.43;;;21.70;24.50;;;;;;5092842;28;20039;-37
2021/04/21 10:50:36;;;;;;;9.18;7.35;;;21.00;25.60;;;;;;5092412;28;20122;-36
2021/04/21 10:53:02;;;;;;;9.80;7.35;;;20.90;26.50;;;;;;5092465;28;20465;-36
2021/04/21 10:55:28;;;;;;;11.73;7.40;;;21.00;26.70;;;;;;5090985;28;20028;-37
2021/04/21 10:57:58;;;;;;;10.20;7.20;;;21.50;25.90;;;;;;5091991;28;20349;-37
2021/04/21 11:00:24;;;;;;;9.30;6.90;;;21.10;26.90;;;;;;5092334;28;20024;-37
2021/04/21 11:03:01;;;;;;;11.23;7.20;;;20.80;27.00;;;;;;5092287;28;20035;-36
2021/04/21 11:05:29;;;;;;;9.80;7.82;;;19.80;28.50;;;;;;5092137;28;20437;-37
2021/04/21 11:08:18;;;;;;;14.82;8.13;;;19.00;29.60;;;;;;5092225;28;20047;-37
2021/04/21 11:10:47;;;;;;;10.68;7.50;;;18.10;30.20;;;;;;5092736;28;20040;-37
2021/04/21 11:13:15;;;;;;;11.38;7.93;;;18.30;31.30;;;;;;5091731;28;20039;-36
2021/04/21 11:15:54;;;;;;;14.02;8.77;;;18.30;30.60;;;;;;5092587;28;20027;-37
2021/04/21 11:18:27;;;;;;;8.73;7.20;;;18.40;30.60;;;;;;5092296;28;20024;-38
2021/04/21 11:21:04;;;;;;;11.68;7.95;;;18.50;30.70;;;;;;5092740;28;20074;-37
2021/04/21 11:24:08;;;;;;;19.25;9.02;;;18.80;30.30;;;;;;5091402;28;20035;-37
2021/04/21 11:26:35;;;;;;;13.20;9.13;;;18.30;31.40;;;;;;5092536;28;20476;-37
2021/04/21 11:29:10;;;;;;;15.45;8.95;;;19.10;30.10;;;;;;5092199;28;20463;-37
2021/04/21 11:31:42;;;;;;;16.25;9.68;;;19.20;30.20;;;;;;5092669;28;20031;-38
2021/04/21 11:34:22;;;;;;;18.17;9.05;;;19.20;30.40;;;;;;5095535;28;20027;-37
2021/04/21 11:36:51;;;;;;;13.82;8.88;;;19.90;30.30;;;;;;5095562;28;20028;-37
2021/04/21 11:39:42;;;;;;;11.10;8.07;;;19.50;30.50;;;;;;5095649;28;20047;-37
2021/04/21 11:42:21;;;;;;;;;;;19.00;31.50;;;;;;5096488;28;20028;-37
2021/04/21 11:44:51;;;;;;;18.38;9.75;;;19.10;31.20;;;;;;5095460;28;20340;-37
2021/04/21 11:47:45;;;;;;;17.67;8.48;;;19.50;30.70;;;;;;5095331;28;20031;-36
2021/04/21 11:50:17;;;;;;;17.60;9.27;;;18.80;32.60;;;;;;5095938;28;20442;-37
2021/04/21 11:52:56;;;;;;;14.30;9.05;;;18.40;33.10;;;;;;5095984;28;20496;-37
2021/04/21 11:55:40;;;;;;;13.45;9.73;;;18.60;33.20;;;;;;5095780;28;20436;-37
2021/04/21 11:58:30;;;;;;;13.77;9.85;;;18.80;32.30;;;;;;5095407;28;20024;-37
2021/04/21 12:01:01;;;;;;;14.10;9.57;;;19.80;30.90;;;;;;5095871;28;20050;-37
2021/04/21 12:03:45;;;;;;;13.75;10.27;;;20.90;29.70;;;;;;5094799;28;20093;-37
2021/04/21 12:06:13;;;;;;;14.05;11.10;;;21.40;28.50;;;;;;5095458;28;20055;-37
2021/04/21 12:08:46;;;;;;;15.23;10.23;;;22.10;27.80;;;;;;5095453;28;20027;-37
2021/04/21 12:11:12;;;;;;;14.38;10.45;;;22.50;26.80;;;;;;5095285;28;20123;-37
2021/04/21 12:13:40;;;;;;;18.25;11.15;;;20.70;29.30;;;;;;5095467;28;20067;-37
2021/04/21 12:16:10;;;;;;;18.77;10.45;;;20.80;29.20;;;;;;5095236;28;20020;-36
2021/04/21 12:18:58;;;;;;;16.88;10.57;;;19.70;30.80;;;;;;5095119;28;20078;-35
2021/04/21 12:21:27;;;;;;;13.18;10.30;;;19.80;31.00;;;;;;5094608;28;20024;-36
2021/04/21 12:24:07;;;;;;;16.13;10.27;;;20.00;30.60;;;;;;5094682;28;20031;-37
2021/04/21 12:26:35;;;;;;;15.52;10.52;;;19.20;32.30;;;;;;5094520;28;20039;-36
2021/04/21 12:29:20;;;;;;;16.80;10.90;;;19.30;31.80;;;;;;5094547;28;20081;-35
2021/04/21 12:31:46;;;;;;;17.35;12.35;;;18.90;33.00;;;;;;5095715;28;20482;-35
2021/04/21 12:34:14;;;;;;;16.27;11.32;;;19.30;32.30;;;;;;5094540;28;20024;-36
2021/04/21 12:36:41;;;;;;;15.40;11.50;;;19.00;32.50;;;;;;5094789;28;20406;-37
2021/04/21 12:39:25;;;;;;;14.60;11.35;;;19.40;32.20;;;;;;5094479;28;20103;-36
2021/04/21 12:41:54;;;;;;;14.95;11.25;;;20.70;30.60;;;;;;5094548;28;20096;-36
2021/04/21 12:44:23;;;;;;;17.02;11.45;;;20.70;29.70;;;;;;5094149;28;20024;-36
2021/04/21 12:46:54;;;;;;;15.13;11.38;;;19.30;31.90;;;;;;5094523;28;20046;-36
2021/04/21 12:49:34;;;;;;;18.35;11.73;;;18.30;34.10;;;;;;5093115;28;20051;-37
2021/04/21 12:52:01;;;;;;;17.10;12.20;;;17.90;34.60;;;;;;5094756;28;20429;-36
2021/04/21 12:54:32;;;;;;;13.55;10.95;;;18.10;34.20;;;;;;5094063;28;20030;-36
2021/04/21 12:56:58;;;;;;;20.58;11.57;;;17.90;34.70;;;;;;5094226;28;20107;-35
2021/04/21 12:59:24;;;;;;;16.75;12.32;;;17.80;35.10;;;;;;5094067;28;20055;-35
2021/04/21 13:01:50;;;;;;;15.10;11.10;;;17.70;34.70;;;;;;5094164;28;20079;-36
2021/04/21 13:04:16;;;;;;;20.40;13.77;;;17.20;36.10;;;;;;5094329;28;20027;-37